Avioradar koristi kolačiće da bi Vam omogućio jednostavnije i ugodnije korištenje stranice. 

AVIORADAR - Hrvatski zrakoplovni portal

Poremećaj 24/25.rujan 2018 (SPU/DBV/RJK)

Nenad Sredojević.

DBV poremećaj

25.rujan


Kao posljedica jučerašnjeg poremećaja zbog kojeg ni jedan zrakoplov nije poletio sa ZL Dubrovnik a ni sletio, poremećaj se nastavlja i danas. 

Zrakoplovi Air Serbia, TVS i TUI koji je jučer preusmjeren iz Splita nisu uspjeli poletjeti još od jučer.

U jutarnjim satima zračni promet u Dubrovniku je još uvijek paraliziran i zrakoplovi još nisu u mogućnosti ni polijetati ni slijetati zbog bure čiji udari dosežu 44 čvora, odnosno 81 km/h.

Prema neslužbenim informacijama kojima raspolažemo, sinoć je zbog velikog broja otkazanih i preusmjerenih letova, na ZL Dubrovnik veliki broj putnika ostao u situaciji da nema gdje otići jer im se nije imao gdje osigurati smještaj kao ni autobusni prijevoz do neke alternativne zračne luke.

TAF (Terminal aerodrome forecast) prognoza za dubrovačko područje ne izgleda obećavajuće za cijeli današnji dan tako da se očekuju novi problemi.

TAF LDDU 250525Z 2506/2606 02025G40KT CAVOK
                 TX21/2512Z TN12/2603Z
           BECMG 2508/2510 02020G33KT
           BECMG 2513/2515 02030G45KT=



U trenutku pisanja teksta Croatia Airlines je poletjela iz Zagreba te će pokušati sletjeti u Dubrovnik.

Na ostalim zračnim lukama promet se odvija bez poteškoća.

Situaciju pratimo te ćemo o razvoju izvještavati u realnom vremenu.

UPDATE:

8:20 - poletio prvi zrakoplov - TUI Boeing 737-8K5 za Split (ferry flight)

8:30 - Dva zrakoplova Croatia Airlinesa na putu za Dubrovnik

9:28 - Sletio prvi zrakoplov i to Croatia Airlinesa na stazu 30

11:40 - stanje se polako normalizira, barem za sa sada

U poslijepodnevnim satima smanjio se intenzitet bure ali problem stvara smicanje vjetra (windshear) u finalnom prilazu pa dosta zrakoplova odustaje od slijetanja (go-around).

METAR LDDU 251200Z 08013KT 020V140 CAVOK 20/M03 Q1025 WS R12 BECMG 02018KT =


Nakon poslijepodnevnog smirivanja vjetra, u večernjim satima bura je pojačala te se poremećaj u zračnom prometu u Dubrovniku nastavio. Let CTN iz Amsterdama je preusmjeren na Split a tri preostala leta su upitna. 

METAR LDDU 251930Z 03033G46KT CAVOK 14/M03 Q1026 NOSIG =



Događanja uživo (otkazani letovi kao ni letovi koji nisu pogođeni poremećajem se ne prikazuju):

ETA/ETDLETIZZASTATUSINFO
UTORAK 25.rujan 2018
05:35OU3701/CTN3701BEIRUT (BEY)DUBROVNIK (DBV)PREUSMJEREN ZAGREB (ZAG)Vjetar
07:00OU7660/CTN7660ZAGREB (ZAG)DUBROVNIK (DBV)HOLDING/ SLETIO 09:45Vjetar
08:30OU7661/CTN7661ZAGREB (ZAG)DUBROVNIK (DBV)HOLDING/ SLETIO 09:28Vjetar
09:40U23025/EZY575TLONDON (STN)DUBROVNIK (DBV)PREUSMJEREN ZADAR (ZAD)Vjetar
09:35HV5007/TRA5007ROTTERDAM (RTM)DUBROVNIK (DBV)HOLDING/ SLETIO 10:15Vjetar
10:35*LS1313/EXS33RYBIRMINGHAM (BHX)DUBROVNIK (DBV)PREUSMJEREN PULA (PUY)Vjetar
10:30U26951/EZY63NJEDINBURGH (EDI)DUBROVNIK (DBV)PREUSMJEREN ZADAR (ZAD)Vjetar
09:55D86180/IBK6180MADRID (MAD)DUBROVNIK (DBV)HOLDING/ SLETIO 11:21Vjetar
10:55BA2678/BAW22LVLONDON (LGW)DUBROVNIK (DBV)HOLDING/ SLETIO 10:58Vjetar
11:00U27377/EZY28YHSOUTHEND (SEN)DUBROVNIK (DBV)PREUSMJEREN BARI (BRI)Vjetar
10:45U28517/EZY52PTLONDON (LGW)DUBROVNIK (DBV)HOLDING/ SLETIO 11:40Vjetar
12:30EW9952/EWG6WRDUSSELDORF (DUS)DUBROVNIK (DBV)GO-AROUND/ SLETIO 12:37Smicanje vjetra
10:30*EXS131WPULA (PUY)DUBROVNIK (DBV)GO-AROUND/ SLETIO 13:50Smicanje vjetra
20:30OU455/CTN5NDAMSTERDAM (AMS)DUBROVNIK (DBV)PREUSMJEREN SPLIT (SPU)Vjetar
21:55U22041/EZY25PZLONDON (LTN)DUBROVNIK (DBV)PREUSMJEREN ZADAR (ZAD)Vjetar
21:40OU4433/CTN334EMUNICH (MUC)DUBROVNIK (DBV)PREUSMJEREN ZAGREB (ZAG)Vjetar
23:00OU664/CTN664ZAGREB (ZAG)DUBROVNIK (DBV)PREUSMJEREN SPLIT (SPU)Vjetar

f_800_450_16119285_00_images_SQUAWK_POR_DBV.jpg
24.rujan

Zbog najavljenog pogoršanja vremena došlo je do poremećaja u zračnom prometu.

Prvo je poremećaj zahvatio samo zračnu luku Split (SPU/LDSP) gdje su jaka kiša i vjetar (do 40 čvorova / 74 km/h) ometali dolazni promet te su zrakoplovi u holdingu čekali smirivanje situacije. Osam letova je preusmjereno na alternativne destinacije

METAR LDSP 241100Z 03019G30KT 4000 +RA FEW013 SCT020 BKN035 14/11 Q1017 RETS BECMG FM1130 8000 NSW=


Neki od tih letova su preusmjereni na Dubrovnik gdje se također kasnije oko 15 sati pogoršalo stanje pa je i na toj zračnoj luci došlo do poremećaja koji je još u tijeku te se dolazni promet preusmjerava. Najjači udari bure zabilježeni do 16 sati na zračnoj luci iznosili su 56 čvorova odnosno 104 km/h.
Također, većina odlaznih letova je otkazana ili čeka priliku za odlazak pa su zabilježena velika kašnjenja u odlascima.
Večernji letovi prema Dubrovniku su većinom otkazani. 

METAR LDDU 241400Z 02039G53KT 330V060 9999 -RA FEW004 SCT017 BKN038 16/09 Q1014 RERA TEMPO TSRA FEW030CB BKN035 =

 

Na zračnoj luci Rijeka udari bure premašuju 50 čvorova (93 km/h) pa su dva dolazna leta preusmjerena na Pulu. 

METAR LDRI 241330Z 06020G38KT 020V110 CAVOK 18/03 Q1020=

Događanja 24.9.2019 (otkazani letovi kao ni letovi koji nisu pogođeni poremećajem se ne prikazuju):

STALETIZZASTATUSINFO
PONEDJELJAK 24.rujan 2018
12:15C3815/TDR815PULA (PUY)SPLIT (SPU)PREUSMJEREN ZADAR (ZAD)Vjetar/Kiša
12:45TB1965/JAF40DPARIZ (CDG)SPLIT (SPU)PREUSMJEREN DUBROVNIK (DBV)Vjetar/Kiša
12:00EW2964/EWG9RBSTUTTGART (STR)SPLIT (SPU)PREUSMJEREN ZAGREB (ZAG)Vjetar/Kiša
13:30U28395/EZY31TJLONDON (LGW)SPLIT (SPU)PREUSMJEREN ZAGREB (ZAG)Vjetar/Kiša
13:45OU413/CTN413FRANKFUR (FRA)SPLIT (SPU)PREUSMJEREN ZADAR (ZAD)Vjetar/Kiša
13:15OU654/CTN654ZAGREB (ZAG)SPLIT (SPU)PREUSMJEREN ZADAR (ZAD)Vjetar/Kiša
14:15EW7984/EWG7984HAMBURG (HAM)SPLIT (SPU)HOLDING/SLETIO 15:23Vjetar/Kiša
14:35JU152/ASL47XBEOGRAD (BEG)SPLIT (SPU)HOLDING/SLETIO 15:15Vjetar/Kiša
14:30U24755/EZY38UABERLIN (SFX)SPLIT (SPU)PREUSMJEREN ZADAR (ZAD)Vjetar/Kiša
14:05OU475/CTN475PARIZ (CDG)SPLIT (SPU)HOLDING/SLETIO 15:20Vjetar/Kiša
14:25EW968/EWG73ZKOELN (CGN)SPLIT (SPU)HOLDING/SLETIO 15:05Vjetar/Kiša
13:55QS1082/TVS1DEPRAG (PRG)SPLIT (SPU)PREUSMJEREN ZADAR (ZAD)Vjetar/Kiša
15:00U27997/EZY32XUAMSTERDAM (AMS)SPLIT (SPU)HOLDING/SLETIO 15:29Vjetar/ Kiša
14:10OS731/AUA731DBEČ (VIE)DUBROVNIK (DBV)PREUSMJEREN BEČ (VIE)Vjetar
15:10VK3050/FOO3050BEČ (VIE)DUBROVNIK (DBV)PREUSMJEREN ZAGREB (ZAG)Vjetar
14:55OU300/CTN3RCZAGREB (ZAG)DUBROVNIK (DBV)PREUSMJEREN ZAGREB (ZAG)Vjetar
15:40FR5131/RYR32BHSTOCHOLM (NYO)RIJEKA (RJK)PREUSMJEREN PULA (PUY)Vjetar
15:40EW8968/EWG6YGBERLIN (TXL)RIJEKA (RJK)PREUSMJEREN PULA (PUY)Vjetar
15:40OU662/CTN8AZAGREB (ZAG)DUBROVNIK (DBV)PREUSMJEREN ZAGREB (ZAG)Vjetar/Kiša
15:55LH1710/DLH1UXMUNICH (MUC)DUBROVNIK (DBV)PREUSMJEREN BEOGRAD (BEG)Vjetar
17:00OU419/CTN27HFRANKFURT (FRA)DUBROVNIK (DBV)PREUSMJEREN ZADAR (ZAD)Vjetar
17:50TK1439/THY99DISTANBUL (IST)DUBROVNIK (DBV)PREUSMJEREN PODGORICA (TGD)Vjetar
19:45QS3412/TVS3412TOULOUSE (TLS)DUBROVNIK (DBV)PREUSMJEREN SPLIT (SPU)Vjetar

 

Foto © M.H. / Avioradar // Flightradar24 - screenshot

Twitter